SBCTSBNF [BGM087]

Details From SBCT - Afonso Pena
To SBNF - Ministro Victor Konder
Flight Number BGM087
Tags None
Created
Modified
Stats Distance 98 nm / 182 km
Max Altitude 10,000 ft / 3,048 m
Waypoints 7
Social Downloads 12
Likes 1
Share VATSIM

Download

Looking for another format? Having issues loading an existing format? Contact us
Advertisement - Login to hide

Notes

Dep RW 15 Arr RW 25 Navigantes NDB (NVG) 235 kHz

Route

SBCT CT011 ALVOX GAB NAZA TARX SBNF

ID Type Via Altitude Latitude Longitude Leg Dist Tot Dist Heading (true) Name
O SBCT APT - 2,988 ft / 911 m -25.52889˚ -49.17306˚ - 0 nm - Afonso Pena
CT011 FIX - 5,000 ft / 1,524 m -25.65333˚ -49.03800˚ 10 nm 10 nm 136° / 136° -
ALVOX FIX - 10,000 ft / 3,048 m -26.17550˚ -48.97667˚ 31 nm 41 nm 174° / 174° -
GAB NDB - 6,000 ft / 1,829 m -26.37333˚ -48.72317˚ 18 nm 60 nm 131° / 131° GABI NDB
NAZA FIX - 3,000 ft / 914 m -26.78183˚ -48.49050˚ 27 nm 87 nm 153° / 153° -
TARX FIX - 1,000 ft / 305 m -26.81783˚ -48.55183˚ 3 nm 91 nm 237° / 237° -
O SBNF APT - 18 ft / 5 m -26.88000˚ -48.65139˚ 6 nm 98 nm 235° / 235° Ministro Victor Konder

Altitude Profile

Advertisement - Login to hide

SBCT

Details ICAO SBCT (CWB)
Name Afonso Pena
Region Brazil
Timezone America/Sao_Paulo (UTC-2.0)
Stats Elevation 2,988 ft / 911 m (AMSL)
Location -25.528885° -49.173062°
Runways 2
Magnetic Variation 19.614° W

METAR

SBCT 161300Z 07007KT 9999 SCT015 23/17 Q1019

Decode

TAF

TAF SBCT 160830Z 1612/1712 08005KT 9999 BKN012 TX28/1617Z TN16/1708Z BECMG 1612/1614 03008KT SCT025 BECMG 1615/1617 VCSH BKN030 FEW040TCU BECMG 1620/1622 NSW SCT035 BECMG 1700/1702 02003KT 5000 BR BKN003 BKN006 BECMG 1706/1708 35005KT 8000 BKN008 BECMG 1710/1712 9999 NSW SCT012 RMK PDW

Decode

Departure Runways

ID Width Length Bearing (true) Bearing (mag) Surface Threshold Offset Overrun Length
11 148 ft / 45 m 5,909 ft / 1,801 m 91.79° 111.40° Asphalt 0 ft / 0 m 0 ft / 0 m
15 148 ft / 45 m 7,290 ft / 2,222 m 134.76° 154.37° Asphalt 0 ft / 0 m 190 ft / 58 m
29 148 ft / 45 m 5,909 ft / 1,801 m 271.78° 291.39° Asphalt 0 ft / 0 m 0 ft / 0 m
33 148 ft / 45 m 7,290 ft / 2,222 m 314.75° 334.36° Asphalt 0 ft / 0 m 185 ft / 56 m

SBNF

Details ICAO SBNF (NVT)
Name Ministro Victor Konder
Region Brazil
Timezone America/Sao_Paulo (UTC-2.0)
Stats Elevation 18 ft / 5 m (AMSL)
Location -26.879998° -48.651387°
Runways 1
Magnetic Variation 19.513° W

METAR

SBNF 161300Z 04009KT 9999 FEW020 BKN030 26/22 Q1014

Decode

TAF

TAF SBNF 160830Z 1612/1712 08005KT 9999 SCT020 TX28/1616Z TN22/1708Z BECMG 1613/1615 04012KT FEW025 BECMG 1622/1624 06005KT SCT015 BECMG 1702/1704 26005KT 8000 BKN012 BECMG 1709/1711 9999 NSW SCT015 RMK PDW

Decode

Destination Runways

ID Width Length Bearing (true) Bearing (mag) Surface Threshold Offset Overrun Length
07 148 ft / 45 m 5,580 ft / 1,701 m 54.86° 74.37° Asphalt 0 ft / 0 m 190 ft / 58 m
25 148 ft / 45 m 5,580 ft / 1,701 m 234.85° 254.36° Asphalt 0 ft / 0 m 195 ft / 59 m

Popular Alternatives